createdAt,value
2017-11-05T00:00:50.162Z,90.00
2017-11-05T00:03:16.745Z,90.00
2017-11-05T00:05:42.939Z,90.10
2017-11-05T00:08:09.506Z,89.80
2017-11-05T00:10:36.384Z,89.60
2017-11-05T00:13:03.371Z,89.30
2017-11-05T00:15:29.620Z,89.10
2017-11-05T00:17:56.192Z,89.30
2017-11-05T00:20:23.189Z,89.90
2017-11-05T00:22:49.410Z,90.00
2017-11-05T00:25:15.610Z,90.00
2017-11-05T00:27:41.810Z,90.10
2017-11-05T00:30:08.030Z,90.20
2017-11-05T00:32:34.181Z,90.30
2017-11-05T00:35:01.247Z,90.30
2017-11-05T00:37:27.482Z,90.20
2017-11-05T00:39:53.703Z,90.30
2017-11-05T00:42:19.936Z,90.20
2017-11-05T00:44:47.007Z,90.40
2017-11-05T00:47:13.192Z,90.50
2017-11-05T00:49:39.361Z,90.60
2017-11-05T00:52:05.562Z,90.80
2017-11-05T00:54:31.768Z,90.70
2017-11-05T00:56:57.998Z,90.70
2017-11-05T00:59:24.180Z,90.70
2017-11-05T01:01:51.275Z,90.70
2017-11-05T01:04:17.554Z,90.80
2017-11-05T01:06:44.902Z,90.80
2017-11-05T01:18:51.131Z,90.70
2017-11-05T01:21:17.347Z,90.60
2017-11-05T01:23:43.715Z,90.60
2017-11-05T01:26:09.913Z,90.90
2017-11-05T01:28:36.866Z,91.00
2017-11-05T01:31:03.803Z,91.00
2017-11-05T01:33:32.995Z,91.00
2017-11-05T01:36:00.007Z,91.00
2017-11-05T01:40:54.122Z,91.00
2017-11-05T01:43:20.313Z,91.10
2017-11-05T01:45:46.511Z,91.10
2017-11-05T01:48:13.074Z,90.90
2017-11-05T01:50:39.672Z,91.20
2017-11-05T01:53:05.850Z,91.50
2017-11-05T01:55:32.161Z,91.60
2017-11-05T01:57:59.045Z,91.50
2017-11-05T02:00:26.771Z,91.70
2017-11-05T02:02:53.044Z,91.60
2017-11-05T02:05:19.330Z,91.30
2017-11-05T02:07:46.354Z,91.60
2017-11-05T02:10:12.587Z,91.90
2017-11-05T02:12:38.828Z,92.00
2017-11-05T02:15:06.140Z,92.40
2017-11-05T02:17:32.415Z,92.90
2017-11-05T02:19:59.642Z,93.20
2017-11-05T02:22:26.285Z,93.10
2017-11-05T02:24:52.525Z,92.70
2017-11-05T02:27:19.449Z,92.20
2017-11-05T02:29:46.282Z,92.20
2017-11-05T02:32:12.475Z,92.80
2017-11-05T02:34:39.058Z,92.70
2017-11-05T02:37:05.698Z,93.00
2017-11-05T02:39:32.397Z,93.00
2017-11-05T02:41:58.562Z,93.00
2017-11-05T02:44:25.485Z,92.50
2017-11-05T02:46:52.619Z,92.70
2017-11-05T02:49:18.890Z,92.90
2017-11-05T02:51:45.131Z,92.70
2017-11-05T02:54:12.485Z,92.60
2017-11-05T02:56:39.102Z,92.40
2017-11-05T02:59:06.040Z,92.50
2017-11-05T03:01:32.295Z,92.60
2017-11-05T03:03:58.515Z,92.80
2017-11-05T03:06:25.128Z,92.80
2017-11-05T03:08:52.502Z,92.80
2017-11-05T03:11:19.117Z,93.00
2017-11-05T03:13:46.679Z,92.80
2017-11-05T03:16:15.687Z,92.70
2017-11-05T03:18:42.142Z,92.80
2017-11-05T03:21:08.344Z,92.80
2017-11-05T03:23:35.127Z,93.00
2017-11-05T03:26:03.280Z,92.50
2017-11-05T03:28:30.012Z,92.50
2017-11-05T03:30:56.960Z,92.80
2017-11-05T03:33:23.216Z,92.50
2017-11-05T03:35:49.601Z,92.60
2017-11-05T03:38:16.574Z,92.50
2017-11-05T03:40:42.799Z,93.20
2017-11-05T03:43:09.010Z,93.30
2017-11-05T03:45:35.198Z,93.30
2017-11-05T03:48:02.144Z,93.60
2017-11-05T03:50:29.119Z,93.00
2017-11-05T03:52:55.350Z,93.30
2017-11-05T03:55:21.647Z,93.30
2017-11-05T03:57:47.926Z,93.20
2017-11-05T04:00:14.171Z,92.80
2017-11-05T04:02:40.412Z,92.90
2017-11-05T04:05:07.012Z,92.90
2017-11-05T04:07:33.206Z,93.50
2017-11-05T04:09:59.911Z,93.10
2017-11-05T04:12:26.224Z,93.50
2017-11-05T04:14:52.494Z,92.90
2017-11-05T04:17:18.979Z,92.90
2017-11-05T04:19:45.215Z,92.90
2017-11-05T04:22:11.428Z,92.90
2017-11-05T04:24:38.617Z,92.90
2017-11-05T04:27:05.173Z,93.00
2017-11-05T04:29:32.320Z,92.90
2017-11-05T04:31:59.525Z,92.90
2017-11-05T04:36:54.409Z,92.90
2017-11-05T04:39:20.680Z,92.90
2017-11-05T04:41:47.232Z,92.90
2017-11-05T04:44:13.495Z,93.00
2017-11-05T04:46:40.182Z,92.90
2017-11-05T04:49:07.178Z,92.90
2017-11-05T04:51:33.495Z,93.00
2017-11-05T04:54:00.952Z,92.80
2017-11-05T04:56:27.945Z,92.90
2017-11-05T04:58:54.545Z,92.90
2017-11-05T05:01:21.627Z,92.90
2017-11-05T05:03:48.753Z,92.90
2017-11-05T05:06:14.974Z,92.90
2017-11-05T05:08:41.933Z,92.80
2017-11-05T05:11:08.176Z,92.90
2017-11-05T05:13:34.715Z,93.00
2017-11-05T05:16:01.403Z,92.90
2017-11-05T05:18:27.887Z,93.00
2017-11-05T05:20:54.221Z,93.00
2017-11-05T05:23:20.436Z,93.50
2017-11-05T05:25:46.694Z,93.70
2017-11-05T05:28:12.933Z,93.60
2017-11-05T05:30:39.569Z,93.00
2017-11-05T05:33:06.177Z,93.00
2017-11-05T05:35:32.658Z,93.10
2017-11-05T05:37:59.540Z,93.40
2017-11-05T05:40:26.615Z,93.20
2017-11-05T05:52:32.948Z,93.50
2017-11-05T05:55:00.229Z,93.30
2017-11-05T05:57:27.085Z,93.00
2017-11-05T05:59:54.177Z,93.40
2017-11-05T06:02:20.390Z,93.60
2017-11-05T06:04:46.638Z,93.10
2017-11-05T06:07:13.230Z,93.30
2017-11-05T06:09:39.476Z,93.10
2017-11-05T06:12:06.220Z,93.40
2017-11-05T06:14:32.466Z,93.40
2017-11-05T06:16:58.705Z,93.30
2017-11-05T06:19:25.025Z,93.40
2017-11-05T06:21:51.274Z,93.40
2017-11-05T06:24:18.878Z,93.20
2017-11-05T06:26:47.591Z,93.40
2017-11-05T06:29:13.943Z,93.40
2017-11-05T06:31:41.582Z,93.40
2017-11-05T06:34:08.338Z,93.50
2017-11-05T06:36:34.568Z,93.60
2017-11-05T06:39:01.654Z,93.60
2017-11-05T06:41:27.901Z,93.10
2017-11-05T06:43:54.156Z,93.70
2017-11-05T06:46:20.418Z,93.30
2017-11-05T06:48:46.704Z,93.30
2017-11-05T06:51:12.930Z,93.30
2017-11-05T06:53:39.152Z,93.50
2017-11-05T06:56:06.135Z,93.50
2017-11-05T06:58:32.463Z,93.60
2017-11-05T07:01:01.151Z,93.20
2017-11-05T07:03:27.780Z,93.60
2017-11-05T07:05:54.030Z,93.80
2017-11-05T07:10:48.176Z,94.10
2017-11-05T07:22:56.842Z,93.40
2017-11-05T07:25:23.066Z,93.30
2017-11-05T07:27:50.500Z,93.70
2017-11-05T07:30:16.715Z,93.80
2017-11-05T07:32:44.219Z,93.80
2017-11-05T07:35:11.213Z,93.80
2017-11-05T07:37:37.700Z,93.50
2017-11-05T07:40:04.357Z,93.20
2017-11-05T07:42:30.569Z,93.10
2017-11-05T07:44:56.784Z,93.30
2017-11-05T07:47:23.787Z,93.60
2017-11-05T07:49:50.157Z,93.50
2017-11-05T07:52:18.103Z,93.50
2017-11-05T07:54:45.928Z,92.90
2017-11-05T07:57:12.240Z,93.20
2017-11-05T07:59:38.572Z,92.90
2017-11-05T08:02:04.787Z,92.60
2017-11-05T08:04:31.219Z,92.40
2017-11-05T08:06:58.491Z,92.30
2017-11-05T08:09:26.171Z,91.90
2017-11-05T08:11:52.669Z,91.90
2017-11-05T08:14:19.242Z,91.00
2017-11-05T08:16:46.203Z,90.20
2017-11-05T08:19:12.815Z,88.00
2017-11-05T08:21:39.070Z,88.50
2017-11-05T08:24:05.502Z,87.80
2017-11-05T08:26:31.803Z,87.70
2017-11-05T08:28:58.386Z,87.30
2017-11-05T08:31:25.234Z,87.00
2017-11-05T08:33:51.422Z,87.00
2017-11-05T08:36:18.749Z,85.80
2017-11-05T08:38:45.024Z,83.70
2017-11-05T08:41:11.286Z,85.70
2017-11-05T08:43:37.542Z,86.30
2017-11-05T08:46:08.273Z,86.10
2017-11-05T08:48:35.132Z,86.40
2017-11-05T08:51:01.784Z,85.60
2017-11-05T08:53:28.116Z,84.80
2017-11-05T08:55:54.343Z,84.90
2017-11-05T08:58:21.093Z,84.60
2017-11-05T09:00:48.711Z,84.80
2017-11-05T09:03:22.165Z,85.20
2017-11-05T09:05:48.613Z,84.10
2017-11-05T09:08:14.828Z,85.00
2017-11-05T09:10:41.818Z,85.10
2017-11-05T09:13:08.624Z,84.80
2017-11-05T09:15:35.308Z,84.10
2017-11-05T09:18:02.360Z,83.50
2017-11-05T09:20:28.892Z,83.10
2017-11-05T09:22:55.995Z,83.70
2017-11-05T09:25:22.287Z,84.60
2017-11-05T09:27:48.511Z,84.10
2017-11-05T09:30:15.784Z,84.70
2017-11-05T09:32:42.882Z,84.30
2017-11-05T09:35:09.503Z,84.10
2017-11-05T09:37:35.743Z,83.60
2017-11-05T09:49:43.601Z,84.50
2017-11-05T09:52:09.761Z,85.00
2017-11-05T09:54:36.076Z,84.30
2017-11-05T09:57:02.320Z,85.10
2017-11-05T09:59:29.813Z,84.00
2017-11-05T10:01:56.825Z,83.90
2017-11-05T10:04:24.833Z,83.80
2017-11-05T10:06:54.818Z,83.10
2017-11-05T10:09:21.335Z,82.10
2017-11-05T10:11:47.927Z,81.50
2017-11-05T10:14:14.572Z,81.90
2017-11-05T10:16:40.863Z,83.30
2017-11-05T10:19:07.099Z,84.10
2017-11-05T10:21:33.894Z,83.80
2017-11-05T10:24:00.059Z,84.40
2017-11-05T10:26:27.175Z,83.40
2017-11-05T10:28:53.624Z,82.90
2017-11-05T10:31:20.637Z,83.10
2017-11-05T10:33:46.931Z,83.50
2017-11-05T10:36:13.176Z,83.30
2017-11-05T10:38:40.905Z,82.50
2017-11-05T10:41:10.387Z,81.20
2017-11-05T10:43:37.012Z,81.10
2017-11-05T10:46:04.970Z,81.80
2017-11-05T10:48:32.965Z,82.00
2017-11-05T10:50:59.900Z,82.00
2017-11-05T10:53:26.142Z,81.90
2017-11-05T10:55:52.479Z,82.20
2017-11-05T10:58:19.187Z,82.70
2017-11-05T11:00:45.577Z,81.40
2017-11-05T11:03:11.794Z,81.00
2017-11-05T11:05:38.180Z,83.40
2017-11-05T11:08:05.422Z,82.30
2017-11-05T11:10:33.284Z,82.40
2017-11-05T11:12:59.542Z,82.80
2017-11-05T11:15:25.786Z,84.00
2017-11-05T11:17:52.220Z,83.10
2017-11-05T11:20:18.504Z,82.90
2017-11-05T11:22:45.537Z,83.30
2017-11-05T11:25:11.783Z,84.00
2017-11-05T11:27:38.525Z,83.10
2017-11-05T11:30:05.580Z,83.30
2017-11-05T11:32:32.962Z,81.00
2017-11-05T11:34:59.225Z,82.00
2017-11-05T11:37:25.426Z,84.30
2017-11-05T11:39:51.656Z,80.90
2017-11-05T11:44:46.489Z,79.00
2017-11-05T11:47:12.726Z,80.20
2017-11-05T11:49:38.909Z,80.30
2017-11-05T11:52:05.550Z,81.20
2017-11-05T11:54:32.163Z,80.60
2017-11-05T11:57:00.025Z,81.00
2017-11-05T11:59:27.369Z,81.20
2017-11-05T12:01:53.659Z,81.10
2017-11-05T12:04:21.410Z,79.70
2017-11-05T12:06:47.710Z,80.00
2017-11-05T12:18:55.434Z,76.30
2017-11-05T12:21:22.040Z,75.50
2017-11-05T12:23:48.682Z,75.50
2017-11-05T12:26:15.477Z,75.20
2017-11-05T12:28:41.725Z,76.20
2017-11-05T12:31:07.942Z,76.10
2017-11-05T12:33:34.481Z,75.50
2017-11-05T12:36:00.739Z,76.30
2017-11-05T12:38:27.358Z,76.30
2017-11-05T12:40:53.652Z,77.20
2017-11-05T12:43:20.190Z,78.10
2017-11-05T12:45:47.553Z,78.50
2017-11-05T12:48:14.313Z,80.00
2017-11-05T12:50:41.557Z,80.10
2017-11-05T12:53:07.791Z,79.10
2017-11-05T12:55:34.011Z,79.60
2017-11-05T12:58:00.266Z,79.00
2017-11-05T13:00:26.507Z,77.10
2017-11-05T13:02:52.803Z,78.00
2017-11-05T13:05:19.026Z,77.40
2017-11-05T13:07:45.238Z,78.90
2017-11-05T13:10:11.434Z,79.10
2017-11-05T13:12:37.652Z,77.40
2017-11-05T13:15:04.252Z,78.00
2017-11-05T13:17:30.502Z,77.60
2017-11-05T13:19:56.730Z,77.50
2017-11-05T13:22:23.746Z,76.50
2017-11-05T13:24:49.965Z,75.50
2017-11-05T13:27:17.309Z,75.20
2017-11-05T13:29:43.530Z,76.10
2017-11-05T13:32:09.710Z,75.10
2017-11-05T13:34:36.716Z,76.00
2017-11-05T13:37:02.977Z,75.80
2017-11-05T13:39:29.232Z,75.80
2017-11-05T13:41:56.202Z,75.50
2017-11-05T13:44:22.385Z,75.80
2017-11-05T13:46:48.638Z,74.30
2017-11-05T13:49:15.036Z,75.30
2017-11-05T13:51:42.071Z,74.50
2017-11-05T13:54:11.745Z,74.30
2017-11-05T13:56:39.745Z,74.40
2017-11-05T13:59:05.991Z,75.00
2017-11-05T14:01:32.248Z,75.10
2017-11-05T14:03:58.855Z,75.20
2017-11-05T14:06:25.802Z,75.60
2017-11-05T14:08:52.075Z,76.20
2017-11-05T14:11:18.272Z,75.60
2017-11-05T14:13:45.045Z,75.70
2017-11-05T14:16:12.818Z,76.00
2017-11-05T14:18:39.865Z,74.80
2017-11-05T14:21:07.074Z,75.50
2017-11-05T14:23:34.505Z,76.00
2017-11-05T14:26:00.706Z,76.00
2017-11-05T14:28:27.665Z,75.40
2017-11-05T14:30:54.662Z,75.80
2017-11-05T14:33:21.017Z,74.40
2017-11-05T14:35:47.307Z,74.50
2017-11-05T14:38:13.539Z,75.00
2017-11-05T14:40:40.676Z,75.00
2017-11-05T14:43:06.864Z,74.90
2017-11-05T14:45:33.187Z,75.40
2017-11-05T14:47:59.434Z,75.10
2017-11-05T14:50:25.692Z,77.10
2017-11-05T14:52:52.015Z,76.10
2017-11-05T14:55:18.316Z,77.20
2017-11-05T14:57:44.559Z,76.50
2017-11-05T15:00:10.872Z,77.30
2017-11-05T15:05:05.180Z,77.50
2017-11-05T15:07:31.442Z,77.90
2017-11-05T15:09:57.654Z,77.80
2017-11-05T15:12:24.734Z,77.20
2017-11-05T15:14:51.554Z,77.80
2017-11-05T15:17:17.817Z,77.50
2017-11-05T15:19:45.543Z,77.10
2017-11-05T15:22:11.794Z,76.80
2017-11-05T15:24:38.761Z,77.00
2017-11-05T15:27:05.793Z,76.30
2017-11-05T15:29:32.008Z,76.70
2017-11-05T15:31:58.325Z,76.00
2017-11-05T15:34:24.597Z,75.60
2017-11-05T15:36:52.002Z,75.60
2017-11-05T15:39:18.689Z,76.00
2017-11-05T15:41:45.087Z,76.60
2017-11-05T15:44:11.439Z,75.80
2017-11-05T15:46:37.670Z,75.90
2017-11-05T15:49:04.824Z,75.80
2017-11-05T15:51:33.131Z,75.90
2017-11-05T15:54:00.145Z,76.50
2017-11-05T15:56:28.233Z,76.20
2017-11-05T15:58:54.624Z,76.30
2017-11-05T16:01:22.261Z,76.50
2017-11-05T16:03:48.849Z,77.10
2017-11-05T16:06:15.093Z,76.50
2017-11-05T16:11:10.375Z,77.00
2017-11-05T16:13:36.563Z,77.20
2017-11-05T16:16:03.001Z,77.20
2017-11-05T16:18:29.489Z,76.60
2017-11-05T16:20:58.700Z,76.70
2017-11-05T16:23:25.845Z,77.20
2017-11-05T16:25:52.428Z,77.10
2017-11-05T16:28:19.213Z,76.90
2017-11-05T16:30:46.407Z,76.50
2017-11-05T16:33:13.425Z,76.60
2017-11-05T16:35:39.925Z,76.40
2017-11-05T16:38:07.254Z,75.70
2017-11-05T16:40:34.282Z,75.80
2017-11-05T16:43:01.780Z,76.10
2017-11-05T16:45:28.005Z,76.10
2017-11-05T16:47:55.061Z,76.40
2017-11-05T16:50:21.642Z,76.50
2017-11-05T16:52:47.854Z,77.80
2017-11-05T16:55:15.135Z,76.70
2017-11-05T16:57:41.332Z,77.30
2017-11-05T17:03:00.439Z,78.10
2017-11-05T17:05:26.680Z,79.10
2017-11-05T17:07:53.050Z,79.30
2017-11-05T17:10:19.317Z,79.80
2017-11-05T17:12:45.584Z,79.60
2017-11-05T17:15:12.216Z,79.30
2017-11-05T17:27:18.504Z,79.60
2017-11-05T17:29:45.899Z,79.20
2017-11-05T17:32:13.094Z,78.80
2017-11-05T17:34:40.348Z,78.60
2017-11-05T17:37:06.585Z,77.10
2017-11-05T17:39:32.907Z,77.00
2017-11-05T17:41:59.871Z,77.60
2017-11-05T17:44:26.100Z,77.00
2017-11-05T17:46:52.310Z,77.00
2017-11-05T17:49:18.553Z,77.30
2017-11-05T17:51:44.858Z,77.20
2017-11-05T17:54:11.467Z,77.30
2017-11-05T17:56:37.914Z,78.00
2017-11-05T17:59:04.161Z,77.30
2017-11-05T18:01:30.394Z,77.50
2017-11-05T18:03:57.608Z,77.30
2017-11-05T18:06:23.828Z,77.50
2017-11-05T18:08:52.511Z,77.00
2017-11-05T18:11:18.738Z,77.30
2017-11-05T18:13:45.694Z,76.00
2017-11-05T18:16:13.956Z,76.20
2017-11-05T18:18:41.328Z,76.20
2017-11-05T18:21:08.272Z,76.10
2017-11-05T18:23:34.519Z,74.80
2017-11-05T18:26:00.786Z,74.90
2017-11-05T18:28:27.025Z,75.10
2017-11-05T18:30:53.565Z,75.90
2017-11-05T18:33:20.212Z,74.20
2017-11-05T18:35:46.444Z,74.50
2017-11-05T18:38:12.680Z,73.10
2017-11-05T18:40:39.760Z,73.40
2017-11-05T18:43:06.809Z,73.80
2017-11-05T18:45:44.030Z,74.50
2017-11-05T18:48:11.002Z,74.30
2017-11-05T18:50:37.258Z,74.70
2017-11-05T18:53:03.462Z,73.00
2017-11-05T18:55:30.160Z,73.10
2017-11-05T18:57:56.375Z,73.40
2017-11-05T19:00:23.437Z,73.90
2017-11-05T19:02:50.389Z,74.10
2017-11-05T19:05:16.632Z,74.40
2017-11-05T19:07:43.058Z,74.10
2017-11-05T19:10:09.738Z,74.10
2017-11-05T19:22:16.436Z,73.90
2017-11-05T19:24:44.475Z,73.50
2017-11-05T19:27:11.132Z,73.30
2017-11-05T19:29:37.457Z,72.80
2017-11-05T19:32:04.572Z,73.70
2017-11-05T19:34:31.893Z,73.70
2017-11-05T19:39:28.500Z,73.10
2017-11-05T19:41:56.016Z,72.70
2017-11-05T19:44:23.124Z,72.80
2017-11-05T19:46:49.342Z,73.40
2017-11-05T19:49:15.838Z,74.00
2017-11-05T19:51:43.625Z,72.60
2017-11-05T19:54:11.138Z,72.10
2017-11-05T19:56:37.463Z,72.10
2017-11-05T19:59:03.770Z,72.60
2017-11-05T20:03:57.952Z,73.90
2017-11-05T20:06:24.148Z,73.40
2017-11-05T20:08:50.417Z,73.90
2017-11-05T20:23:27.339Z,73.00
2017-11-05T20:25:53.973Z,72.50
2017-11-05T20:28:20.876Z,72.70
2017-11-05T20:30:47.522Z,73.30
2017-11-05T20:33:15.562Z,74.10
2017-11-05T20:35:42.217Z,74.30
2017-11-05T20:38:08.552Z,73.50
2017-11-05T20:43:03.462Z,73.90
2017-11-05T20:45:33.039Z,72.50
2017-11-05T20:47:59.695Z,72.60
2017-11-05T20:50:26.013Z,72.40
2017-11-05T20:52:55.737Z,73.60
2017-11-05T20:55:23.340Z,73.90
2017-11-05T20:57:50.453Z,73.30
2017-11-05T21:00:16.905Z,72.70
2017-11-05T21:02:44.597Z,72.80
2017-11-05T21:05:11.062Z,73.00
2017-11-05T21:07:38.649Z,74.30
2017-11-05T21:10:05.016Z,73.40
2017-11-05T21:12:32.332Z,73.00
2017-11-05T21:15:00.290Z,73.60
2017-11-05T21:17:27.172Z,74.10
2017-11-05T21:19:54.503Z,74.00
2017-11-05T21:22:21.555Z,74.00
2017-11-05T21:29:44.233Z,74.10
2017-11-05T21:32:13.168Z,73.70
2017-11-05T21:34:42.534Z,73.10
2017-11-05T21:37:10.034Z,73.40
2017-11-05T21:39:37.891Z,73.30
2017-11-05T21:42:05.855Z,73.60
2017-11-05T21:44:32.698Z,73.30
2017-11-05T21:49:28.338Z,74.50
2017-11-05T21:51:55.449Z,74.20
2017-11-05T21:54:21.753Z,73.60
2017-11-05T21:56:48.036Z,74.20
2017-11-05T21:59:14.582Z,74.50
2017-11-05T22:01:40.801Z,74.50
2017-11-05T22:04:07.372Z,74.80
2017-11-05T22:06:33.623Z,74.80
2017-11-05T22:09:00.723Z,74.70
2017-11-05T22:11:27.378Z,74.40
2017-11-05T22:13:53.999Z,74.80
2017-11-05T22:16:20.252Z,75.00
2017-11-05T22:18:46.540Z,75.20
2017-11-05T22:21:12.777Z,75.60
2017-11-05T22:23:39.006Z,75.70
2017-11-05T22:26:05.162Z,75.80
2017-11-05T22:28:31.355Z,76.00
2017-11-05T22:30:58.727Z,75.50
2017-11-05T22:33:26.789Z,76.10
2017-11-05T22:35:52.995Z,75.80
2017-11-05T22:38:19.210Z,75.10
2017-11-05T22:40:46.014Z,75.90
2017-11-05T22:43:12.273Z,75.90
2017-11-05T22:45:38.947Z,75.80
2017-11-05T22:48:05.272Z,75.90
2017-11-05T22:50:31.793Z,75.90
2017-11-05T22:52:58.011Z,75.50
2017-11-05T22:55:25.134Z,75.40
2017-11-05T22:57:52.438Z,75.60
2017-11-05T23:00:18.975Z,75.60
2017-11-05T23:02:46.052Z,75.50
2017-11-05T23:05:12.972Z,75.80
2017-11-05T23:07:40.412Z,75.80
2017-11-05T23:10:07.756Z,76.30
2017-11-05T23:12:33.967Z,76.50
2017-11-05T23:15:00.776Z,76.50
2017-11-05T23:17:28.756Z,76.20
2017-11-05T23:19:54.991Z,76.50
2017-11-05T23:22:21.168Z,76.80
2017-11-05T23:24:49.700Z,76.50
2017-11-05T23:27:15.902Z,76.70
2017-11-05T23:29:42.256Z,76.30
2017-11-05T23:32:08.884Z,76.80
2017-11-05T23:34:35.836Z,76.40
2017-11-05T23:37:02.815Z,77.10
2017-11-05T23:39:29.093Z,77.20
2017-11-05T23:51:35.369Z,75.90
2017-11-05T23:54:02.218Z,76.10
2017-11-05T23:56:29.572Z,76.40
2017-11-05T23:58:55.815Z,76.40
